SHMÚ vydal meteorologické výstrahy na SnowdriftsVietor na horách Display warnings

TAF

Aerodrome Forecast TAF

TAF description (Slovak)

20.01.2021 - 05:00 UTC

TAF AMD LZIB 200952Z 2009/2106 03005KT 6000 FEW010
    TEMPO 2009/2011 1200 BR BKN001
    BECMG 2011/2013 10007KT CAVOK
    TEMPO 2022/2106 2500 BR FEW007
    PROB40 TEMPO 2103/2106 VRB02KT 1000 BCFG BKN004=
TAF AMD LZTT 200952Z 2009/2106 25005KT 8000 SCT012 BKN020
    BECMG 2018/2020 2000 BR FEW010
    TEMPO 2022/2106 0700 FZFG BKN003=

20.01.2021 - 05:00 UTC

TAF AMD LZTT 200852Z 2008/2106 25005KT 8000 SCT012 BKN020
    BECMG 2008/2010 SCT006 BKN009
    BECMG 2018/2020 2000 BR FEW010
    TEMPO 2022/2106 0700 FZFG BKN003=

20.01.2021 - 05:00 UTC

TAF AMD LZKZ 200825Z 2008/2106 20004KT 2000 BR OVC005
    TEMPO 2008/2010 1200 BR OVC003
    BECMG 2010/2012 7000 BKN007
    TEMPO 2018/2104 1700 -DZ BR BKN003
    BECMG 2104/2106 20014KT 9999 BKN014=

20.01.2021 - 08:00 UTC

TAF LZPP 200800Z 2009/2018 15004KT 5000 BR SCT008 BKN025
    BECMG 2010/2012 9999 FEW009 SCT025=
TAF LZZI 200800Z 2009/2018 VRB02KT 5000 BR BKN012 OVC025
    BECMG 2010/2012 9999 FEW002 SCT020=

20.01.2021 - 05:00 UTC

TAF LZIB 200500Z 2006/2106 22008KT 9999 FEW018
    TEMPO 2006/2009 2000 BR FEW008 BKN014
    BECMG 2009/2011 10007KT CAVOK
    TEMPO 2022/2106 2500 BR FEW007
    PROB40 TEMPO 2103/2106 VRB02KT 1000 BCFG BKN004=
TAF LZKZ 200500Z 2006/2106 20004KT 4000 BR OVC003
    TEMPO 2006/2008 1200 -SN BR OVC002
    BECMG 2009/2011 7000 BKN007
    TEMPO 2018/2104 1700 -DZ BR BKN003
    BECMG 2104/2106 20014KT 9999 BKN014=
TAF LZTT 200500Z 2006/2106 25005KT 8000 -SN SCT012 OVC035
    TEMPO 2006/2008 2400 -SN BR BKN008
    BECMG 2008/2010 SCT020
    BECMG 2018/2020 2000 BR FEW010
    TEMPO 2022/2106 0700 FZFG BKN003=

20.01.2021 - 02:00 UTC

TAF AMD LZZI 200449Z 2004/2012 VRB02KT 3500 BR BKN012 OVC020
    TEMPO 2004/2009 1100 -SN BR BKN003 OVC009
    BECMG 2009/2011 9999 FEW002 SCT020=

20.01.2021 - 05:00 UTC

TAF LZPP 200500Z 2006/2015 15004KT 5000 BR SCT008 BKN025
    TEMPO 2006/2009 2500 BR BKN008 OVC020
    BECMG 2009/2011 9999 FEW009 SCT025=
TAF LZZI 200500Z 2006/2015 VRB02KT 3500 BR BKN012 OVC020
    TEMPO 2006/2009 1100 -SN BR BKN003 OVC009
    BECMG 2009/2011 9999 FEW002 SCT020=

20.01.2021 - 02:00 UTC

TAF LZZI 200200Z 2003/2012 VRB02KT 3500 -SN BR BKN018 OVC020
    TEMPO 2003/2005 1100 SN BR BKN006 OVC017
    PROB40 TEMPO 2005/2008 2000 -SNRA BR BKN012 OVC020
    BECMG 2008/2010 9999 NSW SCT020 BKN040=

skok na menu ↑


skok na začiatok stránky ↑